sensor_id;sensor_type;location;lat;lon;timestamp;temperature;humidity
8717;DHT22;4395;48.554;8.820;2022-12-07T00:01:31;3.30;99.90
8717;DHT22;4395;48.554;8.820;2022-12-07T00:03:37;3.30;99.90
8717;DHT22;4395;48.554;8.820;2022-12-07T00:05:44;3.30;99.90
8717;DHT22;4395;48.554;8.820;2022-12-07T00:07:47;3.00;99.90
8717;DHT22;4395;48.554;8.820;2022-12-07T00:09:52;3.40;99.90
8717;DHT22;4395;48.554;8.820;2022-12-07T00:11:55;3.40;99.90
8717;DHT22;4395;48.554;8.820;2022-12-07T00:14:03;3.30;99.90
8717;DHT22;4395;48.554;8.820;2022-12-07T00:16:17;3.30;99.90
8717;DHT22;4395;48.554;8.820;2022-12-07T00:18:21;3.20;99.90
8717;DHT22;4395;48.554;8.820;2022-12-07T00:20:25;3.20;99.90
8717;DHT22;4395;48.554;8.820;2022-12-07T00:22:29;3.10;99.90
8717;DHT22;4395;48.554;8.820;2022-12-07T00:24:33;3.10;99.90
8717;DHT22;4395;48.554;8.820;2022-12-07T00:26:38;3.20;99.90
8717;DHT22;4395;48.554;8.820;2022-12-07T00:28:46;2.30;99.90
8717;DHT22;4395;48.554;8.820;2022-12-07T00:30:51;3.60;99.90
8717;DHT22;4395;48.554;8.820;2022-12-07T00:32:58;3.50;99.90
8717;DHT22;4395;48.554;8.820;2022-12-07T00:35:01;4.50;99.90
8717;DHT22;4395;48.554;8.820;2022-12-07T00:37:05;3.50;99.90
8717;DHT22;4395;48.554;8.820;2022-12-07T00:39:08;3.40;99.90
8717;DHT22;4395;48.554;8.820;2022-12-07T00:41:14;3.50;99.90
8717;DHT22;4395;48.554;8.820;2022-12-07T00:43:18;3.50;99.90
8717;DHT22;4395;48.554;8.820;2022-12-07T00:45:22;3.50;99.90
8717;DHT22;4395;48.554;8.820;2022-12-07T00:47:33;3.50;99.90
8717;DHT22;4395;48.554;8.820;2022-12-07T00:49:36;3.50;99.90
8717;DHT22;4395;48.554;8.820;2022-12-07T00:51:40;3.50;99.90
8717;DHT22;4395;48.554;8.820;2022-12-07T00:53:45;4.70;99.90
8717;DHT22;4395;48.554;8.820;2022-12-07T00:55:49;3.60;99.90
8717;DHT22;4395;48.554;8.820;2022-12-07T00:57:54;3.50;99.90
8717;DHT22;4395;48.554;8.820;2022-12-07T01:00:00;3.50;99.90
8717;DHT22;4395;48.554;8.820;2022-12-07T01:02:04;3.90;99.90
8717;DHT22;4395;48.554;8.820;2022-12-07T01:04:09;3.30;99.90
8717;DHT22;4395;48.554;8.820;2022-12-07T01:06:15;3.40;99.90
8717;DHT22;4395;48.554;8.820;2022-12-07T01:08:19;3.30;99.90
8717;DHT22;4395;48.554;8.820;2022-12-07T01:10:25;3.20;99.90
8717;DHT22;4395;48.554;8.820;2022-12-07T01:12:29;3.80;99.90
8717;DHT22;4395;48.554;8.820;2022-12-07T01:14:33;3.30;99.90
8717;DHT22;4395;48.554;8.820;2022-12-07T01:16:38;3.20;99.90
8717;DHT22;4395;48.554;8.820;2022-12-07T01:18:45;4.20;99.90
8717;DHT22;4395;48.554;8.820;2022-12-07T01:21:00;3.30;99.90
8717;DHT22;4395;48.554;8.820;2022-12-07T01:23:05;3.20;99.90
8717;DHT22;4395;48.554;8.820;2022-12-07T01:25:10;3.20;99.90
8717;DHT22;4395;48.554;8.820;2022-12-07T01:27:14;3.20;99.90
8717;DHT22;4395;48.554;8.820;2022-12-07T01:29:18;4.30;99.90
8717;DHT22;4395;48.554;8.820;2022-12-07T01:31:23;3.20;99.90
8717;DHT22;4395;48.554;8.820;2022-12-07T01:33:28;3.10;99.90
8717;DHT22;4395;48.554;8.820;2022-12-07T01:35:33;3.10;99.90
8717;DHT22;4395;48.554;8.820;2022-12-07T01:37:38;3.10;99.90
8717;DHT22;4395;48.554;8.820;2022-12-07T01:39:42;3.20;99.90
8717;DHT22;4395;48.554;8.820;2022-12-07T01:41:48;3.20;99.90
8717;DHT22;4395;48.554;8.820;2022-12-07T01:44:13;3.30;99.90
8717;DHT22;4395;48.554;8.820;2022-12-07T01:46:19;3.30;99.90
8717;DHT22;4395;48.554;8.820;2022-12-07T01:48:26;4.20;99.90
8717;DHT22;4395;48.554;8.820;2022-12-07T01:50:32;3.40;99.90
8717;DHT22;4395;48.554;8.820;2022-12-07T01:52:38;3.10;99.90
8717;DHT22;4395;48.554;8.820;2022-12-07T01:54:42;4.50;99.90
8717;DHT22;4395;48.554;8.820;2022-12-07T01:56:50;3.10;99.90
8717;DHT22;4395;48.554;8.820;2022-12-07T01:58:54;3.20;99.90
8717;DHT22;4395;48.554;8.820;2022-12-07T02:00:59;3.20;99.90
8717;DHT22;4395;48.554;8.820;2022-12-07T02:03:06;3.10;99.90
8717;DHT22;4395;48.554;8.820;2022-12-07T02:05:16;3.10;99.90
8717;DHT22;4395;48.554;8.820;2022-12-07T02:07:20;3.20;99.90
8717;DHT22;4395;48.554;8.820;2022-12-07T02:09:26;3.20;99.90
8717;DHT22;4395;48.554;8.820;2022-12-07T02:11:30;3.20;99.90
8717;DHT22;4395;48.554;8.820;2022-12-07T02:13:36;3.20;99.90
8717;DHT22;4395;48.554;8.820;2022-12-07T02:16:04;2.40;99.90
8717;DHT22;4395;48.554;8.820;2022-12-07T02:18:17;3.10;99.90
8717;DHT22;4395;48.554;8.820;2022-12-07T02:20:28;3.20;99.90
8717;DHT22;4395;48.554;8.820;2022-12-07T02:22:49;4.00;99.90
8717;DHT22;4395;48.554;8.820;2022-12-07T02:25:06;3.20;99.90
8717;DHT22;4395;48.554;8.820;2022-12-07T02:27:33;4.50;99.90
8717;DHT22;4395;48.554;8.820;2022-12-07T02:29:47;3.20;99.90
8717;DHT22;4395;48.554;8.820;2022-12-07T02:32:01;4.30;99.90
8717;DHT22;4395;48.554;8.820;2022-12-07T02:34:11;3.10;99.90
8717;DHT22;4395;48.554;8.820;2022-12-07T02:36:22;3.10;99.90
8717;DHT22;4395;48.554;8.820;2022-12-07T02:38:33;3.20;99.90
8717;DHT22;4395;48.554;8.820;2022-12-07T02:40:43;3.10;99.90
8717;DHT22;4395;48.554;8.820;2022-12-07T02:42:57;3.00;99.90
8717;DHT22;4395;48.554;8.820;2022-12-07T02:45:06;1.60;99.90
8717;DHT22;4395;48.554;8.820;2022-12-07T02:47:13;2.90;99.90
8717;DHT22;4395;48.554;8.820;2022-12-07T02:49:20;4.30;99.90
8717;DHT22;4395;48.554;8.820;2022-12-07T02:51:27;3.00;99.90
8717;DHT22;4395;48.554;8.820;2022-12-07T02:53:34;3.00;99.90
8717;DHT22;4395;48.554;8.820;2022-12-07T02:55:41;3.00;99.90
8717;DHT22;4395;48.554;8.820;2022-12-07T02:57:56;2.90;99.90
8717;DHT22;4395;48.554;8.820;2022-12-07T03:00:13;2.80;99.90
8717;DHT22;4395;48.554;8.820;2022-12-07T03:02:25;3.40;99.90
8717;DHT22;4395;48.554;8.820;2022-12-07T03:04:38;2.80;99.90
8717;DHT22;4395;48.554;8.820;2022-12-07T03:06:50;2.70;99.90
8717;DHT22;4395;48.554;8.820;2022-12-07T03:09:04;2.70;99.90
8717;DHT22;4395;48.554;8.820;2022-12-07T03:11:14;2.80;99.90
8717;DHT22;4395;48.554;8.820;2022-12-07T03:13:28;2.60;99.90
8717;DHT22;4395;48.554;8.820;2022-12-07T03:15:40;2.70;99.90
8717;DHT22;4395;48.554;8.820;2022-12-07T03:17:48;3.70;99.90
8717;DHT22;4395;48.554;8.820;2022-12-07T03:19:55;2.90;99.90
8717;DHT22;4395;48.554;8.820;2022-12-07T03:22:05;3.50;99.90
8717;DHT22;4395;48.554;8.820;2022-12-07T03:24:14;3.90;99.90
8717;DHT22;4395;48.554;8.820;2022-12-07T03:26:21;2.90;99.90
8717;DHT22;4395;48.554;8.820;2022-12-07T03:28:29;4.60;99.90
8717;DHT22;4395;48.554;8.820;2022-12-07T03:30:42;2.80;99.90
8717;DHT22;4395;48.554;8.820;2022-12-07T03:32:52;2.80;99.90
8717;DHT22;4395;48.554;8.820;2022-12-07T03:35:03;1.40;99.90
8717;DHT22;4395;48.554;8.820;2022-12-07T03:37:14;2.80;99.90
8717;DHT22;4395;48.554;8.820;2022-12-07T03:39:25;3.00;99.90
8717;DHT22;4395;48.554;8.820;2022-12-07T03:41:33;3.40;99.90
8717;DHT22;4395;48.554;8.820;2022-12-07T03:43:46;4.20;99.90
8717;DHT22;4395;48.554;8.820;2022-12-07T03:45:59;2.70;99.90
8717;DHT22;4395;48.554;8.820;2022-12-07T03:48:22;2.50;99.90
8717;DHT22;4395;48.554;8.820;2022-12-07T03:50:31;3.40;99.90
8717;DHT22;4395;48.554;8.820;2022-12-07T03:52:42;2.40;99.90
8717;DHT22;4395;48.554;8.820;2022-12-07T03:54:51;2.40;99.90
8717;DHT22;4395;48.554;8.820;2022-12-07T03:56:58;2.40;99.90
8717;DHT22;4395;48.554;8.820;2022-12-07T03:59:02;2.50;99.90
8717;DHT22;4395;48.554;8.820;2022-12-07T04:01:07;2.40;99.90
8717;DHT22;4395;48.554;8.820;2022-12-07T04:03:11;3.40;99.90
8717;DHT22;4395;48.554;8.820;2022-12-07T04:05:14;2.80;99.90
8717;DHT22;4395;48.554;8.820;2022-12-07T04:07:17;2.40;99.90
8717;DHT22;4395;48.554;8.820;2022-12-07T04:09:26;2.50;99.90
8717;DHT22;4395;48.554;8.820;2022-12-07T04:11:30;2.50;99.90
8717;DHT22;4395;48.554;8.820;2022-12-07T04:13:33;2.60;99.90
8717;DHT22;4395;48.554;8.820;2022-12-07T04:15:58;2.60;99.90
8717;DHT22;4395;48.554;8.820;2022-12-07T04:18:03;2.70;99.90
8717;DHT22;4395;48.554;8.820;2022-12-07T04:20:08;2.60;99.90
8717;DHT22;4395;48.554;8.820;2022-12-07T04:22:12;2.20;99.90
8717;DHT22;4395;48.554;8.820;2022-12-07T04:24:16;3.60;99.90
8717;DHT22;4395;48.554;8.820;2022-12-07T04:26:19;2.60;99.90
8717;DHT22;4395;48.554;8.820;2022-12-07T04:28:23;2.70;99.90
8717;DHT22;4395;48.554;8.820;2022-12-07T04:30:27;3.60;99.90
8717;DHT22;4395;48.554;8.820;2022-12-07T04:32:30;2.70;99.90
8717;DHT22;4395;48.554;8.820;2022-12-07T04:34:41;2.60;99.90
8717;DHT22;4395;48.554;8.820;2022-12-07T04:36:46;2.60;99.90
8717;DHT22;4395;48.554;8.820;2022-12-07T04:38:52;2.70;99.90
8717;DHT22;4395;48.554;8.820;2022-12-07T04:40:56;2.60;99.90
8717;DHT22;4395;48.554;8.820;2022-12-07T04:43:00;2.60;99.90
8717;DHT22;4395;48.554;8.820;2022-12-07T04:45:04;2.70;99.90
8717;DHT22;4395;48.554;8.820;2022-12-07T04:47:08;2.50;99.90
8717;DHT22;4395;48.554;8.820;2022-12-07T04:49:12;3.10;99.90
8717;DHT22;4395;48.554;8.820;2022-12-07T04:51:23;2.50;99.90
8717;DHT22;4395;48.554;8.820;2022-12-07T04:53:27;2.40;99.90
8717;DHT22;4395;48.554;8.820;2022-12-07T04:55:31;2.40;99.90
8717;DHT22;4395;48.554;8.820;2022-12-07T04:57:34;2.40;99.90
8717;DHT22;4395;48.554;8.820;2022-12-07T04:59:37;3.30;99.90
8717;DHT22;4395;48.554;8.820;2022-12-07T05:01:46;3.30;99.90
8717;DHT22;4395;48.554;8.820;2022-12-07T05:03:50;2.50;99.90
8717;DHT22;4395;48.554;8.820;2022-12-07T05:05:54;2.70;99.90
8717;DHT22;4395;48.554;8.820;2022-12-07T05:07:59;2.20;99.90
8717;DHT22;4395;48.554;8.820;2022-12-07T05:10:02;3.70;99.90
8717;DHT22;4395;48.554;8.820;2022-12-07T05:12:06;1.30;99.90
8717;DHT22;4395;48.554;8.820;2022-12-07T05:14:13;2.30;99.90
8717;DHT22;4395;48.554;8.820;2022-12-07T05:16:17;2.20;99.90
8717;DHT22;4395;48.554;8.820;2022-12-07T05:18:21;2.10;99.90
8717;DHT22;4395;48.554;8.820;2022-12-07T05:20:25;3.00;99.90
8717;DHT22;4395;48.554;8.820;2022-12-07T05:22:29;2.10;99.90
8717;DHT22;4395;48.554;8.820;2022-12-07T05:24:34;2.40;99.90
8717;DHT22;4395;48.554;8.820;2022-12-07T05:26:38;2.00;99.90
8717;DHT22;4395;48.554;8.820;2022-12-07T05:28:41;2.00;99.90
8717;DHT22;4395;48.554;8.820;2022-12-07T05:30:48;1.90;99.90
8717;DHT22;4395;48.554;8.820;2022-12-07T05:32:56;1.90;99.90
8717;DHT22;4395;48.554;8.820;2022-12-07T05:35:00;2.50;99.90
8717;DHT22;4395;48.554;8.820;2022-12-07T05:37:03;1.70;99.90
8717;DHT22;4395;48.554;8.820;2022-12-07T05:39:08;1.70;99.90
8717;DHT22;4395;48.554;8.820;2022-12-07T05:41:14;1.70;99.90
8717;DHT22;4395;48.554;8.820;2022-12-07T05:43:36;1.70;99.90
8717;DHT22;4395;48.554;8.820;2022-12-07T05:45:39;1.60;99.90
8717;DHT22;4395;48.554;8.820;2022-12-07T05:47:42;1.60;99.90
8717;DHT22;4395;48.554;8.820;2022-12-07T05:49:45;1.60;99.90
8717;DHT22;4395;48.554;8.820;2022-12-07T05:51:49;2.30;99.90
8717;DHT22;4395;48.554;8.820;2022-12-07T05:53:52;1.50;99.90
8717;DHT22;4395;48.554;8.820;2022-12-07T05:55:55;1.50;99.90
8717;DHT22;4395;48.554;8.820;2022-12-07T05:57:59;1.50;99.90
8717;DHT22;4395;48.554;8.820;2022-12-07T06:00:17;1.40;99.90
8717;DHT22;4395;48.554;8.820;2022-12-07T06:02:21;1.30;99.90
8717;DHT22;4395;48.554;8.820;2022-12-07T06:04:26;1.30;99.90
8717;DHT22;4395;48.554;8.820;2022-12-07T06:06:30;1.30;99.90
8717;DHT22;4395;48.554;8.820;2022-12-07T06:08:34;1.30;99.90
8717;DHT22;4395;48.554;8.820;2022-12-07T06:10:37;1.20;99.90
8717;DHT22;4395;48.554;8.820;2022-12-07T06:12:40;2.20;99.90
8717;DHT22;4395;48.554;8.820;2022-12-07T06:14:46;1.10;99.90
8717;DHT22;4395;48.554;8.820;2022-12-07T06:16:49;1.00;99.90
8717;DHT22;4395;48.554;8.820;2022-12-07T06:18:52;1.00;99.90
8717;DHT22;4395;48.554;8.820;2022-12-07T06:20:56;1.00;99.90
8717;DHT22;4395;48.554;8.820;2022-12-07T06:22:59;0.90;99.90
8717;DHT22;4395;48.554;8.820;2022-12-07T06:25:02;2.50;99.90
8717;DHT22;4395;48.554;8.820;2022-12-07T06:27:10;0.80;99.90
8717;DHT22;4395;48.554;8.820;2022-12-07T06:29:14;0.80;99.90
8717;DHT22;4395;48.554;8.820;2022-12-07T06:31:18;0.80;99.90
8717;DHT22;4395;48.554;8.820;2022-12-07T06:33:22;0.90;99.90
8717;DHT22;4395;48.554;8.820;2022-12-07T06:35:25;1.00;99.90
8717;DHT22;4395;48.554;8.820;2022-12-07T06:37:28;1.00;99.90
8717;DHT22;4395;48.554;8.820;2022-12-07T06:39:31;1.00;99.90
8717;DHT22;4395;48.554;8.820;2022-12-07T06:41:35;1.00;99.90
8717;DHT22;4395;48.554;8.820;2022-12-07T06:43:39;1.70;99.90
8717;DHT22;4395;48.554;8.820;2022-12-07T06:45:43;0.90;99.90
8717;DHT22;4395;48.554;8.820;2022-12-07T06:47:48;2.20;99.90
8717;DHT22;4395;48.554;8.820;2022-12-07T06:49:52;0.90;99.90
8717;DHT22;4395;48.554;8.820;2022-12-07T06:51:55;-0.30;99.90
8717;DHT22;4395;48.554;8.820;2022-12-07T06:53:59;1.90;99.90
8717;DHT22;4395;48.554;8.820;2022-12-07T06:56:02;0.90;99.90
8717;DHT22;4395;48.554;8.820;2022-12-07T06:58:05;0.90;99.90
8717;DHT22;4395;48.554;8.820;2022-12-07T07:00:10;0.90;99.90
8717;DHT22;4395;48.554;8.820;2022-12-07T07:02:22;0.90;99.90
8717;DHT22;4395;48.554;8.820;2022-12-07T07:04:27;1.00;99.90
8717;DHT22;4395;48.554;8.820;2022-12-07T07:06:30;1.00;99.90
8717;DHT22;4395;48.554;8.820;2022-12-07T07:08:33;1.00;99.90
8717;DHT22;4395;48.554;8.820;2022-12-07T07:10:37;1.00;99.90
8717;DHT22;4395;48.554;8.820;2022-12-07T07:12:40;1.10;99.90
8717;DHT22;4395;48.554;8.820;2022-12-07T07:14:43;1.10;99.90
8717;DHT22;4395;48.554;8.820;2022-12-07T07:16:46;1.20;99.90
8717;DHT22;4395;48.554;8.820;2022-12-07T07:18:50;1.30;99.90
8717;DHT22;4395;48.554;8.820;2022-12-07T07:20:55;1.40;99.90
8717;DHT22;4395;48.554;8.820;2022-12-07T07:22:58;1.50;99.90
8717;DHT22;4395;48.554;8.820;2022-12-07T07:25:01;1.50;99.90
8717;DHT22;4395;48.554;8.820;2022-12-07T07:27:05;1.50;99.90
8717;DHT22;4395;48.554;8.820;2022-12-07T07:29:08;1.60;99.90
8717;DHT22;4395;48.554;8.820;2022-12-07T07:31:11;1.50;99.90
8717;DHT22;4395;48.554;8.820;2022-12-07T07:33:14;1.50;99.90
8717;DHT22;4395;48.554;8.820;2022-12-07T07:35:17;1.60;99.90
8717;DHT22;4395;48.554;8.820;2022-12-07T07:37:22;1.60;99.90
8717;DHT22;4395;48.554;8.820;2022-12-07T07:39:25;1.70;99.90
8717;DHT22;4395;48.554;8.820;2022-12-07T07:41:28;1.70;99.90
8717;DHT22;4395;48.554;8.820;2022-12-07T07:43:32;1.50;99.90
8717;DHT22;4395;48.554;8.820;2022-12-07T07:45:36;1.40;99.90
8717;DHT22;4395;48.554;8.820;2022-12-07T07:47:39;1.40;99.90
8717;DHT22;4395;48.554;8.820;2022-12-07T07:49:42;1.40;99.90
8717;DHT22;4395;48.554;8.820;2022-12-07T07:51:49;2.20;99.90
8717;DHT22;4395;48.554;8.820;2022-12-07T07:53:54;1.60;99.90
8717;DHT22;4395;48.554;8.820;2022-12-07T07:55:57;1.60;99.90
8717;DHT22;4395;48.554;8.820;2022-12-07T07:58:08;1.60;99.90
8717;DHT22;4395;48.554;8.820;2022-12-07T08:00:14;1.70;99.90
8717;DHT22;4395;48.554;8.820;2022-12-07T08:02:19;1.70;99.90
8717;DHT22;4395;48.554;8.820;2022-12-07T08:04:23;2.80;99.90
8717;DHT22;4395;48.554;8.820;2022-12-07T08:06:27;1.70;99.90
8717;DHT22;4395;48.554;8.820;2022-12-07T08:08:33;1.70;99.90
8717;DHT22;4395;48.554;8.820;2022-12-07T08:10:38;1.60;99.90
8717;DHT22;4395;48.554;8.820;2022-12-07T08:12:42;1.70;99.90
8717;DHT22;4395;48.554;8.820;2022-12-07T08:15:03;1.80;99.90
8717;DHT22;4395;48.554;8.820;2022-12-07T08:17:06;1.70;99.90
8717;DHT22;4395;48.554;8.820;2022-12-07T08:19:10;1.80;99.90
8717;DHT22;4395;48.554;8.820;2022-12-07T08:21:15;1.80;99.90
8717;DHT22;4395;48.554;8.820;2022-12-07T08:23:18;1.90;99.90
8717;DHT22;4395;48.554;8.820;2022-12-07T08:25:31;1.90;99.90
8717;DHT22;4395;48.554;8.820;2022-12-07T08:27:35;1.90;99.90
8717;DHT22;4395;48.554;8.820;2022-12-07T08:29:39;1.90;99.90
8717;DHT22;4395;48.554;8.820;2022-12-07T08:31:42;1.90;99.90
8717;DHT22;4395;48.554;8.820;2022-12-07T08:33:46;1.90;99.90
8717;DHT22;4395;48.554;8.820;2022-12-07T08:35:50;2.00;99.90
8717;DHT22;4395;48.554;8.820;2022-12-07T08:37:53;2.00;99.90
8717;DHT22;4395;48.554;8.820;2022-12-07T08:39:59;3.40;99.90
8717;DHT22;4395;48.554;8.820;2022-12-07T08:42:03;2.10;99.90
8717;DHT22;4395;48.554;8.820;2022-12-07T08:44:07;2.10;99.90
8717;DHT22;4395;48.554;8.820;2022-12-07T08:46:14;2.00;99.90
8717;DHT22;4395;48.554;8.820;2022-12-07T08:48:22;2.10;99.90
8717;DHT22;4395;48.554;8.820;2022-12-07T08:50:26;3.10;99.90
8717;DHT22;4395;48.554;8.820;2022-12-07T08:52:30;2.20;99.90
8717;DHT22;4395;48.554;8.820;2022-12-07T08:54:35;2.20;99.90
8717;DHT22;4395;48.554;8.820;2022-12-07T08:56:41;2.30;99.90
8717;DHT22;4395;48.554;8.820;2022-12-07T08:58:45;3.40;99.90
8717;DHT22;4395;48.554;8.820;2022-12-07T09:00:50;2.30;99.90
8717;DHT22;4395;48.554;8.820;2022-12-07T09:02:54;2.30;99.90
8717;DHT22;4395;48.554;8.820;2022-12-07T09:04:57;2.30;99.90
8717;DHT22;4395;48.554;8.820;2022-12-07T09:07:00;2.40;99.90
8717;DHT22;4395;48.554;8.820;2022-12-07T09:09:04;2.30;99.90
8717;DHT22;4395;48.554;8.820;2022-12-07T09:11:08;2.30;99.90
8717;DHT22;4395;48.554;8.820;2022-12-07T09:13:11;2.40;99.90
8717;DHT22;4395;48.554;8.820;2022-12-07T09:15:14;2.40;99.90
8717;DHT22;4395;48.554;8.820;2022-12-07T09:17:19;3.40;99.90
8717;DHT22;4395;48.554;8.820;2022-12-07T09:19:22;2.50;99.90
8717;DHT22;4395;48.554;8.820;2022-12-07T09:21:25;4.00;99.90
8717;DHT22;4395;48.554;8.820;2022-12-07T09:23:28;2.70;99.90
8717;DHT22;4395;48.554;8.820;2022-12-07T09:25:32;2.70;99.90
8717;DHT22;4395;48.554;8.820;2022-12-07T09:27:35;2.70;99.90
8717;DHT22;4395;48.554;8.820;2022-12-07T09:29:38;3.00;99.90
8717;DHT22;4395;48.554;8.820;2022-12-07T09:31:41;2.80;99.90
8717;DHT22;4395;48.554;8.820;2022-12-07T09:33:46;3.90;99.90
8717;DHT22;4395;48.554;8.820;2022-12-07T09:35:51;3.10;99.90
8717;DHT22;4395;48.554;8.820;2022-12-07T09:37:55;2.50;99.90
8717;DHT22;4395;48.554;8.820;2022-12-07T09:39:58;3.10;99.90
8717;DHT22;4395;48.554;8.820;2022-12-07T09:42:04;3.10;99.90
8717;DHT22;4395;48.554;8.820;2022-12-07T09:44:11;3.10;99.90
8717;DHT22;4395;48.554;8.820;2022-12-07T09:46:17;3.10;99.90
8717;DHT22;4395;48.554;8.820;2022-12-07T09:48:30;3.30;99.90
8717;DHT22;4395;48.554;8.820;2022-12-07T09:50:36;3.40;99.90
8717;DHT22;4395;48.554;8.820;2022-12-07T09:52:40;3.60;99.90
8717;DHT22;4395;48.554;8.820;2022-12-07T09:54:46;3.70;99.90
8717;DHT22;4395;48.554;8.820;2022-12-07T09:56:51;3.80;99.90
8717;DHT22;4395;48.554;8.820;2022-12-07T09:58:59;3.80;99.90
8717;DHT22;4395;48.554;8.820;2022-12-07T10:01:10;3.90;99.90
8717;DHT22;4395;48.554;8.820;2022-12-07T10:03:16;3.00;99.90
8717;DHT22;4395;48.554;8.820;2022-12-07T10:05:22;4.00;99.90
8717;DHT22;4395;48.554;8.820;2022-12-07T10:07:29;4.10;99.90
8717;DHT22;4395;48.554;8.820;2022-12-07T10:09:32;4.20;99.90
8717;DHT22;4395;48.554;8.820;2022-12-07T10:12:02;4.20;99.90
8717;DHT22;4395;48.554;8.820;2022-12-07T10:14:12;4.20;99.90
8717;DHT22;4395;48.554;8.820;2022-12-07T10:16:37;4.30;99.90
8717;DHT22;4395;48.554;8.820;2022-12-07T10:18:42;4.40;99.90
8717;DHT22;4395;48.554;8.820;2022-12-07T10:20:46;4.40;99.90
8717;DHT22;4395;48.554;8.820;2022-12-07T10:23:00;4.40;99.90
8717;DHT22;4395;48.554;8.820;2022-12-07T10:25:08;4.60;99.90
8717;DHT22;4395;48.554;8.820;2022-12-07T10:27:22;4.50;99.90
8717;DHT22;4395;48.554;8.820;2022-12-07T10:29:36;5.50;99.90
8717;DHT22;4395;48.554;8.820;2022-12-07T10:31:40;4.60;99.90
8717;DHT22;4395;48.554;8.820;2022-12-07T10:33:50;6.00;99.90
8717;DHT22;4395;48.554;8.820;2022-12-07T10:35:58;4.60;99.90
8717;DHT22;4395;48.554;8.820;2022-12-07T10:38:16;4.60;99.90
8717;DHT22;4395;48.554;8.820;2022-12-07T10:40:29;5.60;99.90
8717;DHT22;4395;48.554;8.820;2022-12-07T10:42:34;5.40;99.90
8717;DHT22;4395;48.554;8.820;2022-12-07T10:44:38;5.60;99.90
8717;DHT22;4395;48.554;8.820;2022-12-07T10:47:06;4.80;99.90
8717;DHT22;4395;48.554;8.820;2022-12-07T10:49:46;4.80;99.90
8717;DHT22;4395;48.554;8.820;2022-12-07T10:52:10;4.80;99.90
8717;DHT22;4395;48.554;8.820;2022-12-07T10:54:30;4.90;99.90
8717;DHT22;4395;48.554;8.820;2022-12-07T10:56:57;4.90;99.90
8717;DHT22;4395;48.554;8.820;2022-12-07T10:59:39;3.80;99.90
8717;DHT22;4395;48.554;8.820;2022-12-07T11:01:51;4.70;99.90
8717;DHT22;4395;48.554;8.820;2022-12-07T11:06:40;4.60;99.90
8717;DHT22;4395;48.554;8.820;2022-12-07T11:09:00;4.70;99.90
8717;DHT22;4395;48.554;8.820;2022-12-07T11:11:14;5.20;99.90
8717;DHT22;4395;48.554;8.820;2022-12-07T11:13:27;4.90;99.90
8717;DHT22;4395;48.554;8.820;2022-12-07T11:15:40;6.70;99.90
8717;DHT22;4395;48.554;8.820;2022-12-07T11:17:58;4.90;99.90
8717;DHT22;4395;48.554;8.820;2022-12-07T11:20:15;4.80;99.90
8717;DHT22;4395;48.554;8.820;2022-12-07T11:22:36;4.90;99.90
8717;DHT22;4395;48.554;8.820;2022-12-07T11:24:50;4.90;99.90
8717;DHT22;4395;48.554;8.820;2022-12-07T11:27:14;4.80;99.90
8717;DHT22;4395;48.554;8.820;2022-12-07T11:29:42;5.00;99.90
8717;DHT22;4395;48.554;8.820;2022-12-07T11:32:01;5.20;99.90
8717;DHT22;4395;48.554;8.820;2022-12-07T11:34:15;5.20;99.90
8717;DHT22;4395;48.554;8.820;2022-12-07T11:36:36;5.20;99.90
8717;DHT22;4395;48.554;8.820;2022-12-07T11:38:43;5.20;99.90
8717;DHT22;4395;48.554;8.820;2022-12-07T11:40:50;6.50;99.90
8717;DHT22;4395;48.554;8.820;2022-12-07T11:42:59;5.30;99.90
8717;DHT22;4395;48.554;8.820;2022-12-07T11:45:13;6.40;99.90
8717;DHT22;4395;48.554;8.820;2022-12-07T11:47:22;5.40;99.90
8717;DHT22;4395;48.554;8.820;2022-12-07T11:49:40;5.50;99.90
8717;DHT22;4395;48.554;8.820;2022-12-07T11:51:49;6.40;99.90
8717;DHT22;4395;48.554;8.820;2022-12-07T11:53:57;6.10;99.90
8717;DHT22;4395;48.554;8.820;2022-12-07T11:56:07;6.10;99.90
8717;DHT22;4395;48.554;8.820;2022-12-07T11:58:23;5.50;99.90
8717;DHT22;4395;48.554;8.820;2022-12-07T12:00:45;5.50;99.90
8717;DHT22;4395;48.554;8.820;2022-12-07T12:02:52;5.40;99.90
8717;DHT22;4395;48.554;8.820;2022-12-07T12:05:05;5.50;99.90
8717;DHT22;4395;48.554;8.820;2022-12-07T12:07:17;5.60;99.90
8717;DHT22;4395;48.554;8.820;2022-12-07T12:09:48;5.40;99.90
8717;DHT22;4395;48.554;8.820;2022-12-07T12:12:21;5.30;99.90
8717;DHT22;4395;48.554;8.820;2022-12-07T12:15:08;5.20;99.90
8717;DHT22;4395;48.554;8.820;2022-12-07T12:17:46;5.40;99.90
8717;DHT22;4395;48.554;8.820;2022-12-07T12:20:05;5.10;99.90
8717;DHT22;4395;48.554;8.820;2022-12-07T12:22:19;4.30;99.90
8717;DHT22;4395;48.554;8.820;2022-12-07T12:24:25;5.10;99.90
8717;DHT22;4395;48.554;8.820;2022-12-07T12:26:32;5.20;99.90
8717;DHT22;4395;48.554;8.820;2022-12-07T12:28:40;5.90;99.90
8717;DHT22;4395;48.554;8.820;2022-12-07T12:31:11;5.30;99.90
8717;DHT22;4395;48.554;8.820;2022-12-07T12:33:28;5.20;99.90
8717;DHT22;4395;48.554;8.820;2022-12-07T12:35:33;5.10;99.90
8717;DHT22;4395;48.554;8.820;2022-12-07T12:37:45;5.00;99.90
8717;DHT22;4395;48.554;8.820;2022-12-07T12:42:57;4.80;99.90
8717;DHT22;4395;48.554;8.820;2022-12-07T12:45:25;4.80;99.90
8717;DHT22;4395;48.554;8.820;2022-12-07T12:47:42;4.90;99.90
8717;DHT22;4395;48.554;8.820;2022-12-07T12:50:16;4.90;99.90
8717;DHT22;4395;48.554;8.820;2022-12-07T12:52:53;4.90;99.90
8717;DHT22;4395;48.554;8.820;2022-12-07T12:55:00;4.90;99.90
8717;DHT22;4395;48.554;8.820;2022-12-07T12:57:18;4.90;99.90
8717;DHT22;4395;48.554;8.820;2022-12-07T12:59:28;5.00;99.90
8717;DHT22;4395;48.554;8.820;2022-12-07T13:01:41;6.30;99.90
8717;DHT22;4395;48.554;8.820;2022-12-07T13:03:54;5.20;99.90
8717;DHT22;4395;48.554;8.820;2022-12-07T13:06:19;4.90;99.90
8717;DHT22;4395;48.554;8.820;2022-12-07T13:08:34;4.80;99.90
8717;DHT22;4395;48.554;8.820;2022-12-07T13:10:44;4.90;99.90
8717;DHT22;4395;48.554;8.820;2022-12-07T13:12:55;6.20;99.90
8717;DHT22;4395;48.554;8.820;2022-12-07T13:14:59;5.10;99.90
8717;DHT22;4395;48.554;8.820;2022-12-07T13:17:04;4.90;99.90
8717;DHT22;4395;48.554;8.820;2022-12-07T13:22:00;5.20;99.90
8717;DHT22;4395;48.554;8.820;2022-12-07T13:24:07;5.20;99.90
8717;DHT22;4395;48.554;8.820;2022-12-07T13:26:16;5.30;99.90
8717;DHT22;4395;48.554;8.820;2022-12-07T13:28:22;5.40;99.90
8717;DHT22;4395;48.554;8.820;2022-12-07T13:30:28;5.50;99.90
8717;DHT22;4395;48.554;8.820;2022-12-07T13:32:32;7.00;99.90
8717;DHT22;4395;48.554;8.820;2022-12-07T13:34:49;5.40;99.90
8717;DHT22;4395;48.554;8.820;2022-12-07T13:36:52;5.10;99.90
8717;DHT22;4395;48.554;8.820;2022-12-07T13:38:58;5.00;99.90
8717;DHT22;4395;48.554;8.820;2022-12-07T13:41:11;4.90;99.90
8717;DHT22;4395;48.554;8.820;2022-12-07T13:43:24;5.00;99.90
8717;DHT22;4395;48.554;8.820;2022-12-07T13:45:29;5.10;99.90
8717;DHT22;4395;48.554;8.820;2022-12-07T13:47:53;5.10;99.90
8717;DHT22;4395;48.554;8.820;2022-12-07T13:49:58;5.00;99.90
8717;DHT22;4395;48.554;8.820;2022-12-07T13:52:14;4.90;99.90
8717;DHT22;4395;48.554;8.820;2022-12-07T13:54:21;4.80;99.90
8717;DHT22;4395;48.554;8.820;2022-12-07T13:56:28;4.70;99.90
8717;DHT22;4395;48.554;8.820;2022-12-07T13:58:35;4.70;99.90
8717;DHT22;4395;48.554;8.820;2022-12-07T14:00:40;4.60;99.90
8717;DHT22;4395;48.554;8.820;2022-12-07T14:02:55;4.50;99.90
8717;DHT22;4395;48.554;8.820;2022-12-07T14:05:09;4.60;99.90
8717;DHT22;4395;48.554;8.820;2022-12-07T14:07:20;4.60;99.90
8717;DHT22;4395;48.554;8.820;2022-12-07T14:09:27;4.60;99.90
8717;DHT22;4395;48.554;8.820;2022-12-07T14:11:35;5.60;99.90
8717;DHT22;4395;48.554;8.820;2022-12-07T14:13:44;4.50;99.90
8717;DHT22;4395;48.554;8.820;2022-12-07T14:15:50;4.50;99.90
8717;DHT22;4395;48.554;8.820;2022-12-07T14:18:01;4.40;99.90
8717;DHT22;4395;48.554;8.820;2022-12-07T14:20:30;4.40;99.90